createdAt,value
2018-10-04T00:00:07.753Z,66.2
2018-10-04T00:00:56.711Z,66.1
2018-10-04T00:01:47.301Z,66.1
2018-10-04T00:02:37.083Z,66.1
2018-10-04T00:03:27.748Z,66.1
2018-10-04T00:04:17.789Z,66.1
2018-10-04T00:05:07.844Z,66.1
2018-10-04T00:05:57.620Z,66.1
2018-10-04T00:06:47.115Z,66.1
2018-10-04T00:25:10.069Z,65.9
2018-10-04T00:25:58.595Z,65.9
2018-10-04T00:26:48.642Z,65.9
2018-10-04T00:27:38.620Z,65.9
2018-10-04T00:28:28.729Z,65.9
2018-10-04T00:29:19.324Z,65.9
2018-10-04T00:30:09.362Z,65.9
2018-10-04T00:30:59.953Z,65.9
2018-10-04T00:31:49.802Z,65.9
2018-10-04T00:32:39.527Z,65.8
2018-10-04T00:33:29.329Z,65.8
2018-10-04T00:34:19.661Z,65.8
2018-10-04T00:35:09.256Z,65.8
2018-10-04T00:35:59.181Z,65.8
2018-10-04T00:36:50.138Z,65.8
2018-10-04T00:37:40.181Z,65.8
2018-10-04T00:38:29.699Z,65.8
2018-10-04T00:39:20.304Z,65.8
2018-10-04T00:40:10.091Z,65.8
2018-10-04T00:41:00.141Z,65.8
2018-10-04T00:41:49.940Z,65.8
2018-10-04T00:42:40.561Z,65.8
2018-10-04T00:43:30.601Z,65.8
2018-10-04T00:44:20.358Z,65.7
2018-10-04T00:45:11.061Z,65.7
2018-10-04T00:46:01.667Z,65.7
2018-10-04T00:46:50.596Z,65.7
2018-10-04T00:47:39.916Z,65.7
2018-10-04T00:48:30.688Z,65.7
2018-10-04T00:49:21.058Z,65.7
2018-10-04T00:50:10.841Z,65.6
2018-10-04T00:51:00.619Z,65.7
2018-10-04T00:51:50.933Z,65.6
2018-10-04T00:52:40.711Z,65.6
2018-10-04T00:53:31.350Z,65.6
2018-10-04T00:54:21.403Z,65.6
2018-10-04T00:55:11.730Z,65.6
2018-10-04T00:56:01.570Z,65.6
2018-10-04T00:56:51.312Z,65.6
2018-10-04T00:57:41.693Z,65.6
2018-10-04T00:58:31.135Z,65.6
2018-10-04T00:59:21.236Z,65.6
2018-10-04T01:00:12.131Z,65.6
2018-10-04T01:01:01.904Z,65.6
2018-10-04T01:01:51.715Z,65.5
2018-10-04T01:02:41.471Z,65.6
2018-10-04T01:03:31.805Z,65.6
2018-10-04T01:04:21.585Z,65.5
2018-10-04T01:05:12.460Z,65.5
2018-10-04T01:06:02.262Z,65.5
2018-10-04T01:06:52.327Z,65.5
2018-10-04T01:07:42.103Z,65.5
2018-10-04T01:08:32.158Z,65.5
2018-10-04T01:09:22.525Z,65.5
2018-10-04T01:10:12.650Z,65.4
2018-10-04T01:11:02.598Z,65.4
2018-10-04T01:11:51.270Z,65.4
2018-10-04T01:12:43.297Z,65.4
2018-10-04T01:13:32.571Z,65.4
2018-10-04T01:14:22.627Z,65.4
2018-10-04T01:15:12.402Z,65.4
2018-10-04T01:16:03.307Z,65.4
2018-10-04T01:16:52.770Z,65.4
2018-10-04T01:17:43.440Z,65.4
2018-10-04T01:18:32.854Z,65.4
2018-10-04T01:19:23.272Z,65.4
2018-10-04T01:20:13.337Z,65.4
2018-10-04T01:21:03.472Z,65.4
2018-10-04T01:21:53.154Z,65.4
2018-10-04T01:22:43.849Z,65.3
2018-10-04T01:23:32.704Z,65.3
2018-10-04T01:24:23.627Z,65.3
2018-10-04T01:25:13.417Z,65.3
2018-10-04T01:26:03.210Z,65.3
2018-10-04T01:26:53.821Z,65.3
2018-10-04T01:27:44.162Z,65.3
2018-10-04T01:28:33.934Z,65.3
2018-10-04T01:29:24.017Z,65.3
2018-10-04T01:30:14.353Z,65.3
2018-10-04T01:31:03.269Z,65.3
2018-10-04T01:31:54.439Z,65.3
2018-10-04T01:32:43.968Z,65.3
2018-10-04T01:33:34.584Z,65.2
2018-10-04T01:34:24.366Z,65.2
2018-10-04T01:35:14.230Z,65.2
2018-10-04T01:36:04.220Z,65.2
2018-10-04T01:36:54.557Z,65.2
2018-10-04T01:37:44.578Z,65.2
2018-10-04T01:38:34.381Z,65.2
2018-10-04T01:39:24.460Z,65.2
2018-10-04T01:40:14.510Z,65.2
2018-10-04T01:41:04.860Z,65.1
2018-10-04T01:41:55.148Z,65.1
2018-10-04T01:42:44.406Z,65.1
2018-10-04T01:43:35.338Z,65.1
2018-10-04T01:44:25.605Z,65.1
2018-10-04T01:45:14.885Z,65.1
2018-10-04T01:46:05.516Z,65.1
2018-10-04T01:46:55.272Z,65.1
2018-10-04T01:47:44.737Z,65.1
2018-10-04T01:48:35.374Z,65.1
2018-10-04T01:49:25.178Z,65.1
2018-10-04T01:50:15.218Z,65.1
2018-10-04T01:51:05.420Z,65.1
2018-10-04T01:51:55.672Z,65.1
2018-10-04T01:52:45.434Z,65.1
2018-10-04T01:53:36.058Z,65.1
2018-10-04T01:54:25.860Z,65
2018-10-04T01:55:15.889Z,65
2018-10-04T01:56:05.381Z,65
2018-10-04T01:56:56.026Z,65
2018-10-04T01:57:45.802Z,65
2018-10-04T01:58:36.660Z,65
2018-10-04T01:59:25.910Z,64.9
2018-10-04T02:00:15.696Z,64.9
2018-10-04T02:01:05.763Z,64.9
2018-10-04T02:01:55.777Z,64.9
2018-10-04T02:02:46.159Z,64.9
2018-10-04T02:03:36.501Z,64.9
2018-10-04T02:04:26.854Z,64.9
2018-10-04T02:05:16.342Z,64.9
2018-10-04T02:06:06.710Z,64.9
2018-10-04T02:06:56.166Z,64.9
2018-10-04T02:07:46.537Z,64.9
2018-10-04T02:08:36.898Z,64.9
2018-10-04T02:09:26.669Z,64.9
2018-10-04T02:10:17.271Z,64.9
2018-10-04T02:11:07.051Z,64.9
2018-10-04T02:11:57.561Z,64.8
2018-10-04T02:12:47.164Z,64.9
2018-10-04T02:13:36.946Z,64.8
2018-10-04T02:14:27.608Z,64.8
2018-10-04T02:15:17.065Z,64.8
2018-10-04T02:16:06.599Z,64.8
2018-10-04T02:16:57.745Z,64.8
2018-10-04T02:17:47.231Z,64.8
2018-10-04T02:18:37.023Z,64.8
2018-10-04T02:19:27.393Z,64.8
2018-10-04T02:20:18.081Z,64.8
2018-10-04T02:21:07.231Z,64.8
2018-10-04T02:21:58.144Z,64.8
2018-10-04T02:22:47.049Z,64.8
2018-10-04T02:23:37.426Z,64.8
2018-10-04T02:24:28.399Z,64.7
2018-10-04T02:25:18.128Z,64.8
2018-10-04T02:26:08.158Z,64.7
2018-10-04T02:26:58.200Z,64.7
2018-10-04T02:27:47.704Z,64.7
2018-10-04T02:28:37.843Z,64.7
2018-10-04T02:29:28.145Z,64.7
2018-10-04T02:30:18.000Z,64.7
2018-10-04T02:31:08.575Z,64.7
2018-10-04T02:31:58.323Z,64.7
2018-10-04T02:32:48.696Z,64.6
2018-10-04T02:33:38.697Z,64.6
2018-10-04T02:34:28.517Z,64.6
2018-10-04T02:35:18.258Z,64.6
2018-10-04T02:36:08.395Z,64.6
2018-10-04T02:36:58.121Z,64.6
2018-10-04T02:37:48.780Z,64.6
2018-10-04T02:38:38.519Z,64.6
2018-10-04T02:39:28.882Z,64.6
2018-10-04T02:40:18.927Z,64.6
2018-10-04T02:41:09.287Z,64.6
2018-10-04T02:41:59.334Z,64.6
2018-10-04T02:42:49.091Z,64.6
2018-10-04T02:43:39.197Z,64.6
2018-10-04T02:44:28.690Z,64.6
2018-10-04T02:45:19.587Z,64.5
2018-10-04T02:46:09.080Z,64.5
2018-10-04T02:46:59.112Z,64.5
2018-10-04T02:47:49.253Z,64.5
2018-10-04T02:48:40.151Z,64.5
2018-10-04T02:49:29.327Z,64.5
2018-10-04T02:50:19.947Z,64.5
2018-10-04T02:51:09.159Z,64.4
2018-10-04T02:52:00.092Z,64.4
2018-10-04T02:52:49.547Z,64.4
2018-10-04T02:53:40.202Z,64.4
2018-10-04T02:54:30.256Z,64.4
2018-10-04T02:55:20.606Z,64.4
2018-10-04T02:56:10.076Z,64.4
2018-10-04T02:57:00.191Z,64.4
2018-10-04T02:57:50.513Z,64.4
2018-10-04T02:58:40.259Z,64.4
2018-10-04T02:59:30.658Z,64.4
2018-10-04T03:00:20.986Z,64.4
2018-10-04T03:01:10.763Z,64.4
2018-10-04T03:02:00.801Z,64.4
2018-10-04T03:02:50.575Z,64.3
2018-10-04T03:03:40.063Z,64.4
2018-10-04T03:04:29.811Z,64.3
2018-10-04T03:05:21.097Z,64.3
2018-10-04T03:06:10.825Z,64.3
2018-10-04T03:07:00.920Z,64.3
2018-10-04T03:07:51.056Z,64.3
2018-10-04T03:08:41.147Z,64.3
2018-10-04T03:09:31.310Z,64.3
2018-10-04T03:10:21.441Z,64.3
2018-10-04T03:11:11.476Z,64.3
2018-10-04T03:12:01.220Z,64.3
2018-10-04T03:12:51.377Z,64.3
2018-10-04T03:13:41.340Z,64.3
2018-10-04T03:14:31.537Z,64.3
2018-10-04T03:15:21.785Z,64.3
2018-10-04T03:16:11.577Z,64.2
2018-10-04T03:17:01.320Z,64.2
2018-10-04T03:17:51.997Z,64.2
2018-10-04T03:18:41.736Z,64.2
2018-10-04T03:19:32.382Z,64.2
2018-10-04T03:20:22.803Z,64.1
2018-10-04T03:21:12.021Z,64.2
2018-10-04T03:22:02.034Z,64.1
2018-10-04T03:22:52.101Z,64.1
2018-10-04T03:23:41.865Z,64.1
2018-10-04T03:24:32.459Z,64.1
2018-10-04T03:25:21.976Z,64.1
2018-10-04T03:26:12.884Z,64.1
2018-10-04T03:27:02.720Z,64.1
2018-10-04T03:27:52.406Z,64.1
2018-10-04T03:28:42.204Z,64.1
2018-10-04T03:29:32.568Z,64.1
2018-10-04T03:30:24.386Z,64.1
2018-10-04T03:31:12.508Z,64.1
2018-10-04T03:32:02.459Z,64.1
2018-10-04T03:32:52.806Z,64.1
2018-10-04T03:33:42.938Z,64.1
2018-10-04T03:34:33.548Z,64
2018-10-04T03:35:23.870Z,64.1
2018-10-04T03:36:13.296Z,64
2018-10-04T03:37:03.089Z,64
2018-10-04T03:37:53.464Z,64
2018-10-04T03:38:43.495Z,64
2018-10-04T03:39:32.971Z,64
2018-10-04T03:40:23.078Z,64
2018-10-04T03:41:13.696Z,64
2018-10-04T03:42:03.486Z,63.9
2018-10-04T03:42:53.757Z,64
2018-10-04T03:43:43.885Z,63.9
2018-10-04T03:44:33.956Z,63.9
2018-10-04T03:45:23.710Z,63.9
2018-10-04T03:46:13.869Z,63.9
2018-10-04T03:47:03.563Z,63.9
2018-10-04T03:47:54.205Z,63.9
2018-10-04T03:48:44.273Z,63.9
2018-10-04T03:49:34.300Z,63.9
2018-10-04T03:50:23.810Z,63.9
2018-10-04T03:51:14.741Z,63.9
2018-10-04T03:52:03.902Z,63.9
2018-10-04T03:52:54.590Z,63.9
2018-10-04T03:53:44.673Z,63.9
2018-10-04T03:54:34.420Z,63.9
2018-10-04T03:55:24.739Z,63.8
2018-10-04T03:56:15.026Z,63.8
2018-10-04T03:57:04.560Z,63.8
2018-10-04T03:57:54.630Z,63.8
2018-10-04T03:58:45.327Z,63.8
2018-10-04T03:59:34.742Z,63.8
2018-10-04T04:00:24.502Z,63.8
2018-10-04T04:01:15.157Z,63.8
2018-10-04T04:02:05.472Z,63.8
2018-10-04T04:02:54.694Z,63.8
2018-10-04T04:03:44.229Z,63.8
2018-10-04T04:04:35.425Z,63.8
2018-10-04T04:05:25.472Z,63.8
2018-10-04T04:06:15.516Z,63.8
2018-10-04T04:07:05.553Z,63.8
2018-10-04T04:07:55.351Z,63.8
2018-10-04T04:08:46.042Z,63.7
2018-10-04T04:09:35.519Z,63.7
2018-10-04T04:10:25.836Z,63.7
2018-10-04T04:11:14.760Z,63.7
2018-10-04T04:12:06.549Z,63.7
2018-10-04T04:12:56.037Z,63.7
2018-10-04T04:13:45.538Z,63.7
2018-10-04T04:14:35.294Z,63.7
2018-10-04T04:15:25.618Z,63.7
2018-10-04T04:16:15.401Z,63.6
2018-10-04T04:17:05.765Z,63.6
2018-10-04T04:17:55.819Z,63.6
2018-10-04T04:18:45.879Z,63.6
2018-10-04T04:19:36.521Z,63.6
2018-10-04T04:20:26.313Z,63.6
2018-10-04T04:21:16.075Z,63.6
2018-10-04T04:22:07.052Z,63.6
2018-10-04T04:22:56.810Z,63.6
2018-10-04T04:23:46.568Z,63.6
2018-10-04T04:24:36.563Z,63.6
2018-10-04T04:25:26.686Z,63.6
2018-10-04T04:26:17.030Z,63.6
2018-10-04T04:27:07.090Z,63.6
2018-10-04T04:27:56.518Z,63.6
2018-10-04T04:28:46.637Z,63.6
2018-10-04T04:29:36.993Z,63.5
2018-10-04T04:30:27.047Z,63.5
2018-10-04T04:31:17.327Z,63.5
2018-10-04T04:32:08.030Z,63.5
2018-10-04T04:32:56.945Z,63.5
2018-10-04T04:33:46.765Z,63.5
2018-10-04T04:34:37.628Z,63.5
2018-10-04T04:35:27.135Z,63.5
2018-10-04T04:36:18.005Z,63.4
2018-10-04T04:54:24.532Z,63.3
2018-10-04T04:55:13.731Z,63.3
2018-10-04T04:56:03.518Z,63.3
2018-10-04T04:56:53.573Z,63.3
2018-10-04T04:57:43.913Z,63.3
2018-10-04T04:58:33.394Z,63.3
2018-10-04T04:59:24.256Z,63.3
2018-10-04T05:00:13.821Z,63.3
2018-10-04T05:01:04.443Z,63.3
2018-10-04T05:01:54.238Z,63.3
2018-10-04T05:02:44.612Z,63.3
2018-10-04T05:03:34.063Z,63.2
2018-10-04T05:04:24.946Z,63.2
2018-10-04T05:05:13.884Z,63.2
2018-10-04T05:06:05.564Z,63.2
2018-10-04T05:06:54.912Z,63.2
2018-10-04T05:07:43.511Z,63.2
2018-10-04T05:08:34.757Z,63.2
2018-10-04T05:09:24.550Z,63.2
2018-10-04T05:10:14.849Z,63.2
2018-10-04T05:11:05.148Z,63.1
2018-10-04T05:11:55.241Z,63.1
2018-10-04T05:12:44.735Z,63.2
2018-10-04T05:13:35.088Z,63.1
2018-10-04T05:14:25.165Z,63.1
2018-10-04T05:15:14.930Z,63.1
2018-10-04T05:16:05.163Z,63.1
2018-10-04T05:16:55.332Z,63.1
2018-10-04T05:17:44.234Z,63.1
2018-10-04T05:18:35.724Z,63.1
2018-10-04T05:19:25.248Z,63.1
2018-10-04T05:20:15.561Z,63.1
2018-10-04T05:21:05.936Z,63.1
2018-10-04T05:21:55.419Z,63.1
2018-10-04T05:22:46.105Z,63.1
2018-10-04T05:23:36.080Z,63
2018-10-04T05:24:25.873Z,63.1
2018-10-04T05:25:16.203Z,63
2018-10-04T05:26:05.735Z,63.1
2018-10-04T05:26:56.073Z,63
2018-10-04T05:27:47.280Z,63
2018-10-04T05:28:36.170Z,63
2018-10-04T05:29:26.825Z,63
2018-10-04T05:30:16.341Z,63
2018-10-04T05:31:05.530Z,62.9
2018-10-04T05:31:56.705Z,63
2018-10-04T05:32:46.508Z,63
2018-10-04T05:33:36.816Z,62.9
2018-10-04T05:34:26.600Z,62.9
2018-10-04T05:35:16.682Z,62.9
2018-10-04T05:36:06.704Z,62.9
2018-10-04T05:36:57.641Z,62.9
2018-10-04T05:37:46.851Z,62.9
2018-10-04T05:38:36.633Z,62.9
2018-10-04T05:39:27.024Z,62.9
2018-10-04T05:40:17.032Z,62.9
2018-10-04T05:41:07.420Z,62.9
2018-10-04T05:41:56.837Z,62.9
2018-10-04T05:42:47.519Z,62.9
2018-10-04T05:43:37.272Z,62.9
2018-10-04T05:44:27.052Z,62.8
2018-10-04T05:45:18.481Z,62.9
2018-10-04T05:46:06.894Z,62.8
2018-10-04T05:46:57.547Z,62.8
2018-10-04T05:47:47.856Z,62.8
2018-10-04T05:48:37.371Z,62.8
2018-10-04T05:49:27.500Z,62.8
2018-10-04T05:50:18.049Z,62.8
2018-10-04T05:51:08.151Z,62.8
2018-10-04T05:51:57.939Z,62.8
2018-10-04T05:52:48.543Z,62.8
2018-10-04T05:53:38.076Z,62.8
2018-10-04T05:54:27.836Z,62.8
2018-10-04T05:55:18.117Z,62.8
2018-10-04T05:56:08.226Z,62.8
2018-10-04T05:56:58.295Z,62.8
2018-10-04T05:57:48.132Z,62.8
2018-10-04T05:58:38.383Z,62.8
2018-10-04T05:59:28.469Z,62.8
2018-10-04T06:00:18.542Z,62.7
2018-10-04T06:01:08.585Z,62.7
2018-10-04T06:01:58.905Z,62.7
2018-10-04T06:02:49.012Z,62.7
2018-10-04T06:03:39.033Z,62.7
2018-10-04T06:04:29.122Z,62.7
2018-10-04T06:05:19.415Z,62.7
2018-10-04T06:06:09.262Z,62.7
2018-10-04T06:06:58.717Z,62.6
2018-10-04T06:07:49.033Z,62.6
2018-10-04T06:08:39.424Z,62.6
2018-10-04T06:09:28.954Z,62.6
2018-10-04T06:10:18.984Z,62.6
2018-10-04T06:11:09.369Z,62.6
2018-10-04T06:11:59.684Z,62.6
2018-10-04T06:12:49.748Z,62.6
2018-10-04T06:13:39.777Z,62.6
2018-10-04T06:14:29.012Z,62.6
2018-10-04T06:15:20.792Z,62.6
2018-10-04T06:16:09.671Z,62.6
2018-10-04T06:16:59.726Z,62.6
2018-10-04T06:17:49.514Z,62.6
2018-10-04T06:18:39.849Z,62.6
2018-10-04T06:19:29.902Z,62.6
2018-10-04T06:20:20.286Z,62.6
2018-10-04T06:21:10.044Z,62.6
2018-10-04T06:22:01.317Z,62.5
2018-10-04T06:22:50.453Z,62.5
2018-10-04T06:23:40.219Z,62.5
2018-10-04T06:24:30.586Z,62.5
2018-10-04T06:25:20.686Z,62.5
2018-10-04T06:26:10.404Z,62.5
2018-10-04T06:27:00.773Z,62.5
2018-10-04T06:27:50.287Z,62.5
2018-10-04T06:28:41.646Z,62.5
2018-10-04T06:29:30.768Z,62.4
2018-10-04T06:30:20.702Z,62.4
2018-10-04T06:31:11.066Z,62.4
2018-10-04T06:32:00.831Z,62.4
2018-10-04T06:32:51.231Z,62.4
2018-10-04T06:33:40.956Z,62.4
2018-10-04T06:34:30.536Z,62.4
2018-10-04T06:35:22.281Z,62.4
2018-10-04T06:36:11.146Z,62.4
2018-10-04T06:37:01.836Z,62.4
2018-10-04T06:37:50.999Z,62.4
2018-10-04T06:38:41.063Z,62.4
2018-10-04T06:39:31.442Z,62.4
2018-10-04T06:40:21.306Z,62.4
2018-10-04T06:41:11.536Z,62.4
2018-10-04T06:42:01.921Z,62.3
2018-10-04T06:42:51.853Z,62.4
2018-10-04T06:43:40.887Z,62.3
2018-10-04T06:44:32.077Z,62.3
2018-10-04T06:45:21.545Z,62.3
2018-10-04T06:46:11.925Z,62.3
2018-10-04T06:47:01.413Z,62.3
2018-10-04T06:47:52.013Z,62.3
2018-10-04T06:48:42.094Z,62.3
2018-10-04T06:49:32.128Z,62.3
2018-10-04T06:50:22.925Z,62.3
2018-10-04T06:51:11.729Z,62.3
2018-10-04T06:52:02.058Z,62.3
2018-10-04T06:52:52.649Z,62.3
2018-10-04T06:53:42.197Z,62.3
2018-10-04T06:54:32.237Z,62.3
2018-10-04T06:55:22.299Z,62.3
2018-10-04T06:56:12.503Z,62.3
2018-10-04T06:57:03.020Z,62.2
2018-10-04T06:57:53.127Z,62.2
2018-10-04T06:58:42.601Z,62.2
2018-10-04T06:59:32.899Z,62.2
2018-10-04T07:00:23.209Z,62.2
2018-10-04T07:01:12.750Z,62.2
2018-10-04T07:02:02.872Z,62.2
2018-10-04T07:02:53.162Z,62.2
2018-10-04T07:03:43.853Z,62.1
2018-10-04T07:04:32.949Z,62.1
2018-10-04T07:05:23.324Z,62.1
2018-10-04T07:06:13.696Z,62.1
2018-10-04T07:07:03.184Z,62.1
2018-10-04T07:07:54.381Z,62.1
2018-10-04T07:08:43.571Z,62.1
2018-10-04T07:09:33.649Z,62.1
2018-10-04T07:10:23.972Z,62.1
2018-10-04T07:11:14.102Z,62.1
2018-10-04T07:12:03.825Z,62.1
2018-10-04T07:12:53.311Z,62.1
2018-10-04T07:13:43.661Z,62.1
2018-10-04T07:14:34.006Z,62.1
2018-10-04T07:15:24.054Z,62.1
2018-10-04T07:16:13.819Z,62.1
2018-10-04T07:17:04.181Z,62.1
2018-10-04T07:17:53.979Z,62
2018-10-04T07:18:43.778Z,62
2018-10-04T07:19:33.795Z,62
2018-10-04T07:20:23.653Z,62
2018-10-04T07:21:14.781Z,62
2018-10-04T07:22:04.809Z,62
2018-10-04T07:22:54.885Z,62
2018-10-04T07:23:45.006Z,62
2018-10-04T07:24:34.739Z,62
2018-10-04T07:25:24.840Z,61.9
2018-10-04T07:26:14.573Z,62
2018-10-04T07:27:04.967Z,61.9
2018-10-04T07:27:55.271Z,61.9
2018-10-04T07:28:45.341Z,61.9
2018-10-04T07:29:35.473Z,61.9
2018-10-04T07:30:24.625Z,61.9
2018-10-04T07:31:15.220Z,61.9
2018-10-04T07:32:05.315Z,61.9
2018-10-04T07:32:55.643Z,61.9
2018-10-04T07:33:45.715Z,61.9
2018-10-04T07:34:35.218Z,61.9
2018-10-04T07:35:25.248Z,61.9
2018-10-04T07:36:15.046Z,61.9
2018-10-04T07:37:06.130Z,61.9
2018-10-04T07:37:55.456Z,61.9
2018-10-04T07:38:44.479Z,61.9
2018-10-04T07:39:36.111Z,61.9
2018-10-04T07:40:26.222Z,61.8
2018-10-04T07:41:15.490Z,61.9
2018-10-04T07:42:07.465Z,61.8
2018-10-04T07:42:56.125Z,61.8
2018-10-04T07:43:45.915Z,61.8
2018-10-04T07:44:36.217Z,61.8
2018-10-04T07:45:26.332Z,61.8
2018-10-04T07:46:16.359Z,61.8
2018-10-04T07:47:05.937Z,61.8
2018-10-04T07:47:56.490Z,61.8
2018-10-04T07:48:47.090Z,61.8
2018-10-04T07:49:36.889Z,61.8
2018-10-04T07:50:27.094Z,61.8
2018-10-04T07:51:16.522Z,61.8
2018-10-04T07:52:07.079Z,61.8
2018-10-04T07:52:57.104Z,61.8
2018-10-04T07:53:47.179Z,61.8
2018-10-04T07:54:36.970Z,61.8
2018-10-04T07:55:26.626Z,61.8
2018-10-04T07:56:16.919Z,61.8
2018-10-04T07:57:06.685Z,61.8
2018-10-04T07:57:56.740Z,61.7
2018-10-04T07:58:46.823Z,61.7
2018-10-04T07:59:36.869Z,61.7
2018-10-04T08:00:27.499Z,61.7
2018-10-04T08:01:17.258Z,61.7
2018-10-04T08:02:07.827Z,61.7
2018-10-04T08:02:57.074Z,61.6
2018-10-04T08:03:47.671Z,61.6
2018-10-04T08:04:37.163Z,61.6
2018-10-04T08:05:27.498Z,61.6
2018-10-04T08:06:20.356Z,61.6
2018-10-04T08:07:07.381Z,61.7
2018-10-04T08:07:57.991Z,61.8
2018-10-04T08:08:48.138Z,61.8
2018-10-04T08:09:37.381Z,61.8
2018-10-04T08:10:28.201Z,61.9
2018-10-04T08:11:18.221Z,61.9
2018-10-04T08:12:08.001Z,62.1
2018-10-04T08:12:58.598Z,62.1
2018-10-04T08:13:48.168Z,62.2
2018-10-04T08:14:38.204Z,62.3
2018-10-04T08:15:28.289Z,62.3
2018-10-04T08:16:18.315Z,62.4
2018-10-04T08:17:08.405Z,62.5
2018-10-04T08:17:59.020Z,62.5
2018-10-04T08:18:48.302Z,62.6
2018-10-04T08:19:37.698Z,62.6
2018-10-04T08:20:28.670Z,62.6
2018-10-04T08:21:19.407Z,62.7
2018-10-04T08:22:09.043Z,62.8
2018-10-04T08:22:59.368Z,62.8
2018-10-04T08:23:48.464Z,62.9
2018-10-04T08:24:38.452Z,63
2018-10-04T08:25:29.030Z,63.1
2018-10-04T08:26:18.737Z,63.1
2018-10-04T08:27:09.132Z,63.2
2018-10-04T08:27:59.168Z,63.3
2018-10-04T08:28:49.759Z,63.4
2018-10-04T08:29:39.912Z,63.5
2018-10-04T08:30:29.099Z,63.6
2018-10-04T08:31:19.776Z,63.6
2018-10-04T08:32:09.261Z,63.7
2018-10-04T08:32:59.876Z,63.8
2018-10-04T08:33:49.906Z,63.8
2018-10-04T08:34:40.249Z,63.9
2018-10-04T08:35:30.299Z,63.9
2018-10-04T08:36:19.540Z,64.1
2018-10-04T08:37:10.211Z,64.1
2018-10-04T08:38:00.466Z,64.2
2018-10-04T08:38:50.579Z,64.3
2018-10-04T08:39:41.264Z,64.4
2018-10-04T08:40:30.189Z,64.4
2018-10-04T08:41:19.834Z,64.6
2018-10-04T08:42:11.633Z,64.6
2018-10-04T08:43:00.855Z,64.6
2018-10-04T08:43:49.816Z,64.8
2018-10-04T08:44:41.026Z,64.8
2018-10-04T08:45:30.738Z,64.8
2018-10-04T08:46:21.653Z,64.9
2018-10-04T08:47:10.297Z,65.1
2018-10-04T08:48:01.082Z,65.2
2018-10-04T08:48:51.014Z,65.3
2018-10-04T08:49:40.801Z,65.3
2018-10-04T08:50:30.576Z,65.4
2018-10-04T08:51:20.316Z,65.4
2018-10-04T08:52:11.571Z,65.6
2018-10-04T09:08:38.790Z,67
2018-10-04T09:09:29.121Z,67.1
2018-10-04T09:10:19.492Z,67.3
2018-10-04T09:11:09.565Z,67.3
2018-10-04T09:11:59.321Z,67.4
2018-10-04T09:12:49.088Z,67.4
2018-10-04T09:13:39.164Z,67.6
2018-10-04T09:14:28.912Z,67.6
2018-10-04T09:15:19.244Z,67.7
2018-10-04T09:16:08.772Z,67.8
2018-10-04T09:16:59.725Z,67.8
2018-10-04T09:17:49.445Z,67.9
2018-10-04T09:18:39.789Z,67.9
2018-10-04T09:19:29.589Z,67.9
2018-10-04T09:20:19.319Z,68
2018-10-04T09:21:10.280Z,68.1
2018-10-04T09:22:00.137Z,68.3
2018-10-04T09:22:50.076Z,68.3
2018-10-04T09:23:39.296Z,68.4
2018-10-04T09:24:30.496Z,68.5
2018-10-04T09:25:19.711Z,68.6
2018-10-04T09:26:10.206Z,68.6
2018-10-04T09:27:00.734Z,68.8
2018-10-04T09:27:50.193Z,68.9
2018-10-04T09:28:40.259Z,68.9
2018-10-04T09:29:30.022Z,69
2018-10-04T09:30:20.646Z,69
2018-10-04T09:31:10.683Z,69.1
2018-10-04T09:32:01.255Z,69.2
2018-10-04T09:32:50.541Z,69.3
2018-10-04T09:33:40.905Z,69.4
2018-10-04T09:34:30.768Z,69.4
2018-10-04T09:35:21.300Z,69.5
2018-10-04T09:36:11.386Z,69.6
2018-10-04T09:37:01.161Z,69.6
2018-10-04T09:37:51.221Z,69.7
2018-10-04T09:38:41.293Z,69.8
2018-10-04T09:39:31.416Z,69.9
2018-10-04T09:40:21.166Z,70
2018-10-04T09:41:11.932Z,70.1
2018-10-04T09:42:01.831Z,70.1
2018-10-04T09:42:50.921Z,70.1
2018-10-04T09:43:41.395Z,70.2
2018-10-04T09:44:31.700Z,70.3
2018-10-04T09:45:21.763Z,70.3
2018-10-04T09:46:12.061Z,70.4
2018-10-04T09:47:01.343Z,70.4
2018-10-04T09:47:51.973Z,70.5
2018-10-04T09:48:42.305Z,70.6
2018-10-04T09:49:32.357Z,70.7
2018-10-04T09:50:22.132Z,70.8
2018-10-04T09:51:12.448Z,70.9
2018-10-04T09:52:02.584Z,70.9
2018-10-04T09:52:52.055Z,71
2018-10-04T09:53:42.601Z,71.1
2018-10-04T09:54:32.192Z,71.3
2018-10-04T09:55:21.951Z,71.3
2018-10-04T09:56:12.574Z,71.4
2018-10-04T09:57:02.367Z,71.4
2018-10-04T09:57:52.462Z,71.5
2018-10-04T09:58:42.187Z,71.6
2018-10-04T09:59:32.832Z,71.6
2018-10-04T10:00:21.749Z,71.8
2018-10-04T10:01:12.952Z,71.8
2018-10-04T10:02:03.076Z,71.9
2018-10-04T10:02:52.794Z,71.9
2018-10-04T10:03:43.416Z,72.1
2018-10-04T10:04:32.367Z,72.1
2018-10-04T10:05:23.766Z,72.1
2018-10-04T10:06:13.273Z,72.2
2018-10-04T10:07:03.402Z,72.3
2018-10-04T10:07:53.503Z,72.3
2018-10-04T10:08:43.460Z,72.4
2018-10-04T10:09:32.989Z,72.4
2018-10-04T10:10:23.072Z,72.5
2018-10-04T10:11:13.676Z,72.6
2018-10-04T10:12:03.776Z,72.7
2018-10-04T10:12:53.846Z,72.8
2018-10-04T10:13:43.893Z,72.8
2018-10-04T10:14:33.963Z,72.9
2018-10-04T10:15:23.451Z,72.9
2018-10-04T10:16:14.051Z,73
2018-10-04T10:17:03.846Z,73
2018-10-04T10:17:53.930Z,73.1
2018-10-04T10:18:43.979Z,73.1
2018-10-04T10:19:34.035Z,73.2
2018-10-04T10:20:23.637Z,73.3
2018-10-04T10:21:14.803Z,73.3
2018-10-04T10:22:04.792Z,73.4
2018-10-04T10:22:54.520Z,73.4
2018-10-04T10:23:44.907Z,73.5
2018-10-04T10:24:35.009Z,73.6
2018-10-04T10:25:24.439Z,73.6
2018-10-04T10:26:13.672Z,73.7
2018-10-04T10:27:04.872Z,73.8
2018-10-04T10:27:54.669Z,73.8
2018-10-04T10:28:44.418Z,73.9
2018-10-04T10:29:35.045Z,73.9
2018-10-04T10:30:24.847Z,74.1
2018-10-04T10:31:14.891Z,74.1
2018-10-04T10:32:05.490Z,74.1
2018-10-04T10:32:55.590Z,74.2
2018-10-04T10:33:45.074Z,74.3
2018-10-04T10:34:36.316Z,74.3
2018-10-04T10:35:25.456Z,74.4
2018-10-04T10:36:15.609Z,74.4
2018-10-04T10:37:06.167Z,74.5
2018-10-04T10:37:55.656Z,74.6
2018-10-04T10:38:45.739Z,74.6
2018-10-04T10:39:35.514Z,74.6
2018-10-04T10:40:28.405Z,74.7
2018-10-04T10:41:15.956Z,74.8
2018-10-04T10:42:06.262Z,74.8
2018-10-04T10:42:55.771Z,74.9
2018-10-04T10:43:45.542Z,74.9
2018-10-04T10:44:36.171Z,75
2018-10-04T10:45:26.240Z,75.1
2018-10-04T10:46:16.160Z,75.1
2018-10-04T10:47:06.050Z,75.2
2018-10-04T10:47:56.110Z,75.2
2018-10-04T10:48:46.491Z,75.3
2018-10-04T10:49:36.319Z,75.3
2018-10-04T10:50:26.313Z,75.3
2018-10-04T10:51:16.661Z,75.4
2018-10-04T10:52:06.444Z,75.5
2018-10-04T10:52:56.791Z,75.5
2018-10-04T10:53:47.112Z,75.6
2018-10-04T10:54:36.391Z,75.6
2018-10-04T10:55:26.776Z,75.6
2018-10-04T10:56:16.770Z,75.7
2018-10-04T10:57:07.083Z,75.7
2018-10-04T10:57:57.450Z,75.8
2018-10-04T10:58:49.112Z,75.8
2018-10-04T10:59:37.001Z,75.8
2018-10-04T11:00:27.172Z,75.8
2018-10-04T11:01:18.673Z,75.9
2018-10-04T11:02:08.076Z,75.9
2018-10-04T11:02:57.559Z,75.9
2018-10-04T11:03:47.372Z,75.9
2018-10-04T11:04:37.365Z,76.1
2018-10-04T11:05:27.442Z,76.1
2018-10-04T11:06:17.507Z,76.1
2018-10-04T11:07:07.840Z,76.2
2018-10-04T11:07:57.889Z,76.3
2018-10-04T11:08:47.657Z,76.3
2018-10-04T11:09:38.064Z,76.4
2018-10-04T11:10:28.120Z,76.4
2018-10-04T11:11:18.503Z,76.4
2018-10-04T11:12:08.215Z,76.5
2018-10-04T11:12:58.507Z,76.5
2018-10-04T11:13:48.667Z,76.6
2018-10-04T11:14:38.118Z,76.6
2018-10-04T11:15:27.887Z,76.6
2018-10-04T11:16:18.512Z,76.6
2018-10-04T11:17:09.407Z,76.6
2018-10-04T11:17:59.661Z,76.7
2018-10-04T11:18:48.699Z,76.7
2018-10-04T11:19:39.070Z,76.8
2018-10-04T11:20:28.815Z,76.8
2018-10-04T11:21:19.455Z,76.8
2018-10-04T11:22:08.916Z,76.8
2018-10-04T11:22:59.021Z,76.9
2018-10-04T11:23:49.042Z,76.9
2018-10-04T11:24:39.452Z,76.9
2018-10-04T11:25:29.184Z,77
2018-10-04T11:26:18.957Z,77.1
2018-10-04T11:27:09.319Z,77.1
2018-10-04T11:27:59.391Z,77.1
2018-10-04T11:28:49.136Z,77.1
2018-10-04T11:29:39.549Z,77.2
2018-10-04T11:30:29.264Z,77.3
2018-10-04T11:31:19.353Z,77.3
2018-10-04T11:32:09.408Z,77.3
2018-10-04T11:33:00.559Z,77.3
2018-10-04T11:33:49.809Z,77.4
2018-10-04T11:34:39.608Z,77.4
2018-10-04T11:35:29.926Z,77.4
2018-10-04T11:36:20.023Z,77.4
2018-10-04T11:37:10.576Z,77.4
2018-10-04T11:38:00.126Z,77.4
2018-10-04T11:38:49.605Z,77.5
2018-10-04T11:39:40.538Z,77.5
2018-10-04T11:40:30.325Z,77.6
2018-10-04T11:41:20.663Z,77.6
2018-10-04T11:42:10.692Z,77.6
2018-10-04T11:43:00.528Z,77.6
2018-10-04T11:43:50.275Z,77.6
2018-10-04T11:44:40.643Z,77.7
2018-10-04T11:45:29.563Z,77.6
2018-10-04T11:46:20.735Z,77.7
2018-10-04T11:47:11.105Z,77.7
2018-10-04T11:48:01.464Z,77.8
2018-10-04T11:48:50.100Z,77.8
2018-10-04T11:49:41.013Z,77.8
2018-10-04T11:50:31.085Z,77.8
2018-10-04T11:51:20.558Z,77.8
2018-10-04T11:52:11.456Z,77.8
2018-10-04T11:53:00.943Z,77.9
2018-10-04T11:53:51.610Z,77.9
2018-10-04T11:54:42.355Z,77.9
2018-10-04T11:55:30.953Z,77.9
2018-10-04T11:56:21.237Z,77.9
2018-10-04T11:57:11.298Z,77.9
2018-10-04T11:58:01.350Z,78
2018-10-04T11:58:51.663Z,78